sensor_id;sensor_type;location;lat;lon;timestamp;pressure;altitude;pressure_sealevel;temperature;humidity
66196;BME280;53000;45.182;5.736;2023-05-29T00:01:25;99060.06;;;19.96;62.19
66196;BME280;53000;45.182;5.736;2023-05-29T00:03:51;99053.50;;;19.97;61.21
66196;BME280;53000;45.182;5.736;2023-05-29T00:06:16;99060.06;;;19.96;60.95
66196;BME280;53000;45.182;5.736;2023-05-29T00:08:42;99055.44;;;19.97;60.57
66196;BME280;53000;45.182;5.736;2023-05-29T00:11:07;99058.19;;;19.97;61.66
66196;BME280;53000;45.182;5.736;2023-05-29T00:13:33;99042.38;;;19.92;60.97
66196;BME280;53000;45.182;5.736;2023-05-29T00:15:58;99049.44;;;19.88;60.82
66196;BME280;53000;45.182;5.736;2023-05-29T00:18:25;99044.88;;;19.82;61.26
66196;BME280;53000;45.182;5.736;2023-05-29T00:20:51;99048.78;;;19.74;61.49
66196;BME280;53000;45.182;5.736;2023-05-29T00:23:18;99048.88;;;19.68;61.50
66196;BME280;53000;45.182;5.736;2023-05-29T00:25:43;99044.69;;;19.65;61.19
66196;BME280;53000;45.182;5.736;2023-05-29T00:28:09;99041.13;;;19.65;62.74
66196;BME280;53000;45.182;5.736;2023-05-29T00:30:34;99049.81;;;19.61;62.26
66196;BME280;53000;45.182;5.736;2023-05-29T00:33:00;99052.53;;;19.61;61.94
66196;BME280;53000;45.182;5.736;2023-05-29T00:35:25;99045.41;;;19.60;61.50
66196;BME280;53000;45.182;5.736;2023-05-29T00:37:51;99042.88;;;19.59;61.87
66196;BME280;53000;45.182;5.736;2023-05-29T00:40:16;99045.84;;;19.57;62.58
66196;BME280;53000;45.182;5.736;2023-05-29T00:42:42;99038.69;;;19.56;62.04
66196;BME280;53000;45.182;5.736;2023-05-29T00:45:07;99027.09;;;19.54;62.23
66196;BME280;53000;45.182;5.736;2023-05-29T00:47:33;99031.28;;;19.57;62.03
66196;BME280;53000;45.182;5.736;2023-05-29T00:49:59;99030.81;;;19.60;62.15
66196;BME280;53000;45.182;5.736;2023-05-29T00:52:25;99025.31;;;19.60;62.61
66196;BME280;53000;45.182;5.736;2023-05-29T00:54:51;99025.91;;;19.62;62.58
66196;BME280;53000;45.182;5.736;2023-05-29T00:57:17;99018.28;;;19.64;62.03
66196;BME280;53000;45.182;5.736;2023-05-29T00:59:43;99012.56;;;19.66;62.22
66196;BME280;53000;45.182;5.736;2023-05-29T01:02:10;99018.44;;;19.69;62.03
66196;BME280;53000;45.182;5.736;2023-05-29T01:04:36;99017.38;;;19.70;61.89
66196;BME280;53000;45.182;5.736;2023-05-29T01:07:02;99025.16;;;19.73;61.98
66196;BME280;53000;45.182;5.736;2023-05-29T01:09:28;99022.75;;;19.77;61.60
66196;BME280;53000;45.182;5.736;2023-05-29T01:28:46;99021.06;;;19.34;60.42
66196;BME280;53000;45.182;5.736;2023-05-29T01:31:12;99017.72;;;19.32;62.10
66196;BME280;53000;45.182;5.736;2023-05-29T01:33:39;99019.84;;;19.30;61.56
66196;BME280;53000;45.182;5.736;2023-05-29T01:36:09;99020.31;;;19.27;61.56
66196;BME280;53000;45.182;5.736;2023-05-29T01:38:36;99019.25;;;19.28;62.29
66196;BME280;53000;45.182;5.736;2023-05-29T01:41:03;99021.38;;;19.26;62.27
66196;BME280;53000;45.182;5.736;2023-05-29T01:43:29;99013.41;;;19.24;62.58
66196;BME280;53000;45.182;5.736;2023-05-29T01:45:55;99012.53;;;19.24;62.70
66196;BME280;53000;45.182;5.736;2023-05-29T01:48:22;99014.00;;;19.26;62.18
66196;BME280;53000;45.182;5.736;2023-05-29T01:50:48;99009.97;;;19.29;62.14
66196;BME280;53000;45.182;5.736;2023-05-29T01:53:14;99004.59;;;19.34;61.81
66196;BME280;53000;45.182;5.736;2023-05-29T01:55:40;99001.16;;;19.38;61.63
66196;BME280;53000;45.182;5.736;2023-05-29T01:58:06;99006.41;;;19.40;61.96
66196;BME280;53000;45.182;5.736;2023-05-29T02:00:32;99004.75;;;19.39;61.18
66196;BME280;53000;45.182;5.736;2023-05-29T02:02:58;99007.50;;;19.39;61.78
66196;BME280;53000;45.182;5.736;2023-05-29T02:05:23;99004.50;;;19.40;61.58
66196;BME280;53000;45.182;5.736;2023-05-29T02:07:49;99001.75;;;19.40;61.84
66196;BME280;53000;45.182;5.736;2023-05-29T02:10:14;98999.47;;;19.37;61.22
66196;BME280;53000;45.182;5.736;2023-05-29T02:12:39;98994.81;;;19.38;61.36
66196;BME280;53000;45.182;5.736;2023-05-29T02:15:05;98994.59;;;19.39;62.59
66196;BME280;53000;45.182;5.736;2023-05-29T02:17:31;98999.00;;;19.40;62.87
66196;BME280;53000;45.182;5.736;2023-05-29T02:19:56;98995.22;;;19.41;62.78
66196;BME280;53000;45.182;5.736;2023-05-29T02:22:22;98999.88;;;19.41;62.84
66196;BME280;53000;45.182;5.736;2023-05-29T02:24:47;98998.19;;;19.40;62.66
66196;BME280;53000;45.182;5.736;2023-05-29T02:27:12;98995.22;;;19.41;62.48
66196;BME280;53000;45.182;5.736;2023-05-29T02:29:38;98990.94;;;19.46;62.44
66196;BME280;53000;45.182;5.736;2023-05-29T02:32:04;98987.09;;;19.47;62.50
66196;BME280;53000;45.182;5.736;2023-05-29T02:34:30;98999.50;;;19.49;62.77
66196;BME280;53000;45.182;5.736;2023-05-29T02:36:55;98992.97;;;19.50;62.38
66196;BME280;53000;45.182;5.736;2023-05-29T02:39:20;98991.75;;;19.46;63.20
66196;BME280;53000;45.182;5.736;2023-05-29T02:41:46;98992.47;;;19.41;62.31
66196;BME280;53000;45.182;5.736;2023-05-29T02:44:11;98987.41;;;19.38;62.64
66196;BME280;53000;45.182;5.736;2023-05-29T02:46:37;98988.50;;;19.37;63.92
66196;BME280;53000;45.182;5.736;2023-05-29T02:49:02;98987.41;;;19.38;63.52
66196;BME280;53000;45.182;5.736;2023-05-29T02:51:27;98996.53;;;19.39;63.35
66196;BME280;53000;45.182;5.736;2023-05-29T02:53:53;98991.63;;;19.41;63.53
66196;BME280;53000;45.182;5.736;2023-05-29T02:56:19;98984.22;;;19.41;63.31
66196;BME280;53000;45.182;5.736;2023-05-29T02:58:51;98982.31;;;19.42;63.96
66196;BME280;53000;45.182;5.736;2023-05-29T03:01:17;98988.88;;;19.41;63.41
66196;BME280;53000;45.182;5.736;2023-05-29T03:03:42;98988.03;;;19.40;63.32
66196;BME280;53000;45.182;5.736;2023-05-29T03:06:08;98991.38;;;19.42;62.85
66196;BME280;53000;45.182;5.736;2023-05-29T03:08:35;98993.06;;;19.44;63.77
66196;BME280;53000;45.182;5.736;2023-05-29T03:11:05;98986.50;;;19.45;63.56
66196;BME280;53000;45.182;5.736;2023-05-29T03:13:31;98985.44;;;19.46;62.79
66196;BME280;53000;45.182;5.736;2023-05-29T03:15:59;98983.75;;;19.45;62.90
66196;BME280;53000;45.182;5.736;2023-05-29T03:18:25;98986.25;;;19.46;62.87
66196;BME280;53000;45.182;5.736;2023-05-29T03:20:50;98988.78;;;19.48;62.64
66196;BME280;53000;45.182;5.736;2023-05-29T03:23:15;98987.91;;;19.47;62.86
66196;BME280;53000;45.182;5.736;2023-05-29T03:25:41;98996.16;;;19.47;62.52
66196;BME280;53000;45.182;5.736;2023-05-29T03:28:06;98986.88;;;19.48;62.53
66196;BME280;53000;45.182;5.736;2023-05-29T03:30:31;98988.53;;;19.49;62.54
66196;BME280;53000;45.182;5.736;2023-05-29T03:32:57;98991.53;;;19.48;62.39
66196;BME280;53000;45.182;5.736;2023-05-29T03:35:28;98984.34;;;19.47;62.30
66196;BME280;53000;45.182;5.736;2023-05-29T03:37:53;98982.53;;;19.40;62.33
66196;BME280;53000;45.182;5.736;2023-05-29T03:40:18;98990.66;;;19.35;62.26
66196;BME280;53000;45.182;5.736;2023-05-29T03:42:44;98998.06;;;19.35;63.04
66196;BME280;53000;45.182;5.736;2023-05-29T03:45:09;98985.38;;;19.34;62.63
66196;BME280;53000;45.182;5.736;2023-05-29T03:47:35;98984.56;;;19.33;63.01
66196;BME280;53000;45.182;5.736;2023-05-29T03:50:01;98983.94;;;19.31;63.55
66196;BME280;53000;45.182;5.736;2023-05-29T03:52:26;98986.09;;;19.29;63.12
66196;BME280;53000;45.182;5.736;2023-05-29T03:54:52;98986.31;;;19.28;62.53
66196;BME280;53000;45.182;5.736;2023-05-29T03:57:17;98986.56;;;19.26;62.97
66196;BME280;53000;45.182;5.736;2023-05-29T03:59:43;98990.59;;;19.24;63.06
66196;BME280;53000;45.182;5.736;2023-05-29T04:02:08;98992.50;;;19.23;63.02
66196;BME280;53000;45.182;5.736;2023-05-29T04:04:33;98997.16;;;19.23;63.05
66196;BME280;53000;45.182;5.736;2023-05-29T04:06:59;99000.38;;;19.19;62.91
66196;BME280;53000;45.182;5.736;2023-05-29T04:09:24;99000.38;;;19.19;63.01
66196;BME280;53000;45.182;5.736;2023-05-29T04:11:50;99001.22;;;19.20;63.41
66196;BME280;53000;45.182;5.736;2023-05-29T04:14:18;98994.66;;;19.21;63.13
66196;BME280;53000;45.182;5.736;2023-05-29T04:16:43;99006.84;;;19.25;63.16
66196;BME280;53000;45.182;5.736;2023-05-29T04:19:08;99013.16;;;19.26;63.27
66196;BME280;53000;45.182;5.736;2023-05-29T04:21:34;99018.50;;;19.20;63.22
66196;BME280;53000;45.182;5.736;2023-05-29T04:24:00;99024.22;;;19.19;62.81
66196;BME280;53000;45.182;5.736;2023-05-29T04:26:25;99022.78;;;19.16;62.90
66196;BME280;53000;45.182;5.736;2023-05-29T04:28:52;99024.91;;;19.14;62.95
66196;BME280;53000;45.182;5.736;2023-05-29T04:31:25;99021.56;;;19.12;63.15
66196;BME280;53000;45.182;5.736;2023-05-29T04:33:54;99022.03;;;19.09;64.27
66196;BME280;53000;45.182;5.736;2023-05-29T04:36:27;99025.47;;;19.05;63.22
66196;BME280;53000;45.182;5.736;2023-05-29T04:38:53;99029.50;;;19.02;63.56
66196;BME280;53000;45.182;5.736;2023-05-29T04:41:19;99027.00;;;19.00;63.41
66196;BME280;53000;45.182;5.736;2023-05-29T04:43:51;99032.25;;;19.02;63.50
66196;BME280;53000;45.182;5.736;2023-05-29T04:46:17;99031.19;;;19.03;63.17
66196;BME280;53000;45.182;5.736;2023-05-29T04:48:42;99035.84;;;19.03;63.68
66196;BME280;53000;45.182;5.736;2023-05-29T04:51:09;99035.84;;;19.03;63.49
66196;BME280;53000;45.182;5.736;2023-05-29T04:53:39;99034.75;;;19.04;63.80
66196;BME280;53000;45.182;5.736;2023-05-29T04:56:06;99029.88;;;19.06;63.34
66196;BME280;53000;45.182;5.736;2023-05-29T04:58:31;99039.56;;;19.08;63.27
66196;BME280;53000;45.182;5.736;2023-05-29T05:00:56;99035.16;;;19.07;63.55
66196;BME280;53000;45.182;5.736;2023-05-29T05:03:23;99040.03;;;19.05;63.32
66196;BME280;53000;45.182;5.736;2023-05-29T05:05:49;99042.38;;;19.02;63.50
66196;BME280;53000;45.182;5.736;2023-05-29T05:08:15;99047.47;;;18.98;63.21
66196;BME280;53000;45.182;5.736;2023-05-29T05:10:41;99047.13;;;18.94;63.39
66196;BME280;53000;45.182;5.736;2023-05-29T05:13:06;99049.88;;;18.94;63.67
66196;BME280;53000;45.182;5.736;2023-05-29T05:15:32;99046.66;;;18.97;63.49
66196;BME280;53000;45.182;5.736;2023-05-29T05:17:57;99052.13;;;18.97;63.73
66196;BME280;53000;45.182;5.736;2023-05-29T05:20:23;99042.38;;;19.02;63.48
66196;BME280;53000;45.182;5.736;2023-05-29T05:22:48;99049.31;;;19.04;63.62
66196;BME280;53000;45.182;5.736;2023-05-29T05:25:13;99052.66;;;19.06;63.40
66196;BME280;53000;45.182;5.736;2023-05-29T05:27:39;99055.78;;;19.10;63.56
66196;BME280;53000;45.182;5.736;2023-05-29T05:30:05;99054.03;;;19.15;63.27
66196;BME280;53000;45.182;5.736;2023-05-29T05:32:32;99048.47;;;19.22;63.31
66196;BME280;53000;45.182;5.736;2023-05-29T05:34:57;99054.31;;;19.26;63.37
66196;BME280;53000;45.182;5.736;2023-05-29T05:37:23;99057.66;;;19.28;63.40
66196;BME280;53000;45.182;5.736;2023-05-29T05:39:49;99055.31;;;19.31;63.23
66196;BME280;53000;45.182;5.736;2023-05-29T05:42:15;99050.81;;;19.37;63.08
66196;BME280;53000;45.182;5.736;2023-05-29T05:44:41;99055.38;;;19.43;63.02
66196;BME280;53000;45.182;5.736;2023-05-29T05:47:06;99045.94;;;19.51;62.39
66196;BME280;53000;45.182;5.736;2023-05-29T05:49:31;99056.81;;;19.57;62.75
66196;BME280;53000;45.182;5.736;2023-05-29T05:51:57;99049.56;;;19.63;62.33
66196;BME280;53000;45.182;5.736;2023-05-29T05:54:22;99045.91;;;19.69;62.24
66196;BME280;53000;45.182;5.736;2023-05-29T05:56:47;99045.22;;;19.74;61.89
66196;BME280;53000;45.182;5.736;2023-05-29T05:59:13;99040.09;;;19.77;61.60
66196;BME280;53000;45.182;5.736;2023-05-29T06:01:38;99047.03;;;19.80;61.42
66196;BME280;53000;45.182;5.736;2023-05-29T06:04:03;99044.88;;;19.82;61.28
66196;BME280;53000;45.182;5.736;2023-05-29T06:06:29;99037.84;;;19.86;61.34
66196;BME280;53000;45.182;5.736;2023-05-29T06:08:56;99039.06;;;19.90;61.06
66196;BME280;53000;45.182;5.736;2023-05-29T06:11:23;99039.88;;;19.91;61.17
66196;BME280;53000;45.182;5.736;2023-05-29T06:13:48;99038.56;;;19.93;60.86
66196;BME280;53000;45.182;5.736;2023-05-29T06:16:14;99042.53;;;19.97;60.93
66196;BME280;53000;45.182;5.736;2023-05-29T06:18:39;99043.56;;;19.96;60.99
66196;BME280;53000;45.182;5.736;2023-05-29T06:21:05;99042.16;;;19.94;60.81
66196;BME280;53000;45.182;5.736;2023-05-29T06:23:32;99041.09;;;19.95;60.83
66196;BME280;53000;45.182;5.736;2023-05-29T06:25:58;99046.59;;;19.95;61.08
66196;BME280;53000;45.182;5.736;2023-05-29T06:28:24;99041.44;;;19.98;61.32
66196;BME280;53000;45.182;5.736;2023-05-29T06:30:49;99040.59;;;19.98;60.93
66196;BME280;53000;45.182;5.736;2023-05-29T06:33:15;99041.69;;;19.97;61.54
66196;BME280;53000;45.182;5.736;2023-05-29T06:35:40;99041.91;;;19.95;61.55
66196;BME280;53000;45.182;5.736;2023-05-29T06:38:06;99043.56;;;19.96;61.34
66196;BME280;53000;45.182;5.736;2023-05-29T06:40:31;99039.53;;;19.99;61.44
66196;BME280;53000;45.182;5.736;2023-05-29T06:42:56;99045.38;;;20.02;61.40
66196;BME280;53000;45.182;5.736;2023-05-29T06:45:22;99045.75;;;20.06;61.18
66196;BME280;53000;45.182;5.736;2023-05-29T06:47:47;99042.53;;;20.09;60.83
66196;BME280;53000;45.182;5.736;2023-05-29T06:50:13;99034.88;;;20.11;60.91
66196;BME280;53000;45.182;5.736;2023-05-29T06:52:39;99035.03;;;20.16;60.49
66196;BME280;53000;45.182;5.736;2023-05-29T06:55:05;99039.19;;;20.19;60.79
66196;BME280;53000;45.182;5.736;2023-05-29T06:57:31;99045.66;;;20.25;60.82
66196;BME280;53000;45.182;5.736;2023-05-29T06:59:56;99045.53;;;20.31;60.60
66196;BME280;53000;45.182;5.736;2023-05-29T07:02:21;99038.22;;;20.37;60.38
66196;BME280;53000;45.182;5.736;2023-05-29T07:04:47;99033.81;;;20.48;60.17
66196;BME280;53000;45.182;5.736;2023-05-29T07:07:12;99030.25;;;20.59;59.65
66196;BME280;53000;45.182;5.736;2023-05-29T07:09:37;99032.28;;;20.63;59.48
66196;BME280;53000;45.182;5.736;2023-05-29T07:12:05;99030.97;;;20.66;59.50
66196;BME280;53000;45.182;5.736;2023-05-29T07:14:30;99034.91;;;20.70;59.13
66196;BME280;53000;45.182;5.736;2023-05-29T07:16:56;99029.28;;;20.77;59.30
66196;BME280;53000;45.182;5.736;2023-05-29T07:19:21;99031.66;;;20.85;58.86
66196;BME280;53000;45.182;5.736;2023-05-29T07:21:46;99023.25;;;20.92;58.53
66196;BME280;53000;45.182;5.736;2023-05-29T07:24:12;99024.75;;;21.11;59.18
66196;BME280;53000;45.182;5.736;2023-05-29T07:26:37;99031.47;;;22.23;58.13
66196;BME280;53000;45.182;5.736;2023-05-29T07:29:03;99024.59;;;24.07;54.29
66196;BME280;53000;45.182;5.736;2023-05-29T07:31:28;99029.94;;;26.03;51.06
66196;BME280;53000;45.182;5.736;2023-05-29T07:33:54;99029.56;;;27.91;48.01
66196;BME280;53000;45.182;5.736;2023-05-29T07:36:20;99030.47;;;29.47;40.27
66196;BME280;53000;45.182;5.736;2023-05-29T07:38:45;99028.34;;;30.61;40.75
66196;BME280;53000;45.182;5.736;2023-05-29T07:41:11;99023.47;;;31.64;38.92
66196;BME280;53000;45.182;5.736;2023-05-29T07:43:36;99024.44;;;32.49;36.56
66196;BME280;53000;45.182;5.736;2023-05-29T07:46:02;99021.50;;;32.86;35.38
66196;BME280;53000;45.182;5.736;2023-05-29T07:48:28;99026.47;;;33.46;34.49
66196;BME280;53000;45.182;5.736;2023-05-29T07:50:53;99030.66;;;34.10;36.43
66196;BME280;53000;45.182;5.736;2023-05-29T07:53:18;99026.47;;;34.51;32.26
66196;BME280;53000;45.182;5.736;2023-05-29T07:55:44;99026.38;;;34.86;33.13
66196;BME280;53000;45.182;5.736;2023-05-29T07:58:09;99025.78;;;35.10;33.72
66196;BME280;53000;45.182;5.736;2023-05-29T08:00:36;99022.13;;;35.39;32.07
66196;BME280;53000;45.182;5.736;2023-05-29T08:03:03;99023.63;;;35.66;33.21
66196;BME280;53000;45.182;5.736;2023-05-29T08:05:29;99014.22;;;35.83;32.77
66196;BME280;53000;45.182;5.736;2023-05-29T08:07:54;99018.06;;;35.99;32.20
66196;BME280;53000;45.182;5.736;2023-05-29T08:10:20;99005.47;;;35.97;31.54
66196;BME280;53000;45.182;5.736;2023-05-29T08:12:45;99010.22;;;35.84;30.29
66196;BME280;53000;45.182;5.736;2023-05-29T08:15:11;99018.56;;;35.80;31.42
66196;BME280;53000;45.182;5.736;2023-05-29T08:17:37;99013.72;;;36.02;30.39
66196;BME280;53000;45.182;5.736;2023-05-29T08:20:03;99013.16;;;36.09;30.00
66196;BME280;53000;45.182;5.736;2023-05-29T08:22:32;99009.16;;;36.10;28.23
66196;BME280;53000;45.182;5.736;2023-05-29T08:24:58;99016.19;;;36.03;29.97
66196;BME280;53000;45.182;5.736;2023-05-29T08:27:26;99015.50;;;36.07;30.42
66196;BME280;53000;45.182;5.736;2023-05-29T08:29:51;99017.78;;;36.13;29.86
66196;BME280;53000;45.182;5.736;2023-05-29T08:32:17;99008.69;;;36.08;28.12
66196;BME280;53000;45.182;5.736;2023-05-29T08:34:43;99004.16;;;35.94;29.08
66196;BME280;53000;45.182;5.736;2023-05-29T08:37:10;99001.38;;;35.73;28.20
66196;BME280;53000;45.182;5.736;2023-05-29T08:39:38;99000.16;;;35.32;27.83
66196;BME280;53000;45.182;5.736;2023-05-29T08:42:33;98998.41;;;34.89;29.19
66196;BME280;53000;45.182;5.736;2023-05-29T08:45:03;98996.31;;;34.77;29.88
66196;BME280;53000;45.182;5.736;2023-05-29T08:47:40;98997.25;;;34.90;29.93
66196;BME280;53000;45.182;5.736;2023-05-29T08:50:06;99009.56;;;35.07;29.12
66196;BME280;53000;45.182;5.736;2023-05-29T08:52:34;99001.09;;;35.15;29.35
66196;BME280;53000;45.182;5.736;2023-05-29T08:55:03;98994.06;;;35.30;28.15
66196;BME280;53000;45.182;5.736;2023-05-29T08:57:29;98999.19;;;35.28;28.40
66196;BME280;53000;45.182;5.736;2023-05-29T08:59:56;98993.72;;;35.32;27.44
66196;BME280;53000;45.182;5.736;2023-05-29T09:02:21;98998.03;;;35.29;28.00
66196;BME280;53000;45.182;5.736;2023-05-29T09:04:47;98994.06;;;35.30;27.61
66196;BME280;53000;45.182;5.736;2023-05-29T09:07:15;98986.09;;;35.32;28.47
66196;BME280;53000;45.182;5.736;2023-05-29T09:09:41;98995.50;;;35.36;27.83
66196;BME280;53000;45.182;5.736;2023-05-29T09:12:07;98989.41;;;35.34;27.15
66196;BME280;53000;45.182;5.736;2023-05-29T09:14:42;98988.97;;;35.23;26.96
66196;BME280;53000;45.182;5.736;2023-05-29T09:17:10;98987.22;;;35.10;27.11
66196;BME280;53000;45.182;5.736;2023-05-29T09:19:35;98980.75;;;35.10;28.28
66196;BME280;53000;45.182;5.736;2023-05-29T09:22:13;98982.38;;;35.19;28.31
66196;BME280;53000;45.182;5.736;2023-05-29T09:24:45;98977.09;;;35.18;28.00
66196;BME280;53000;45.182;5.736;2023-05-29T09:27:11;98983.72;;;35.13;27.89
66196;BME280;53000;45.182;5.736;2023-05-29T09:29:41;98982.06;;;35.12;28.27
66196;BME280;53000;45.182;5.736;2023-05-29T09:32:15;98975.78;;;35.15;28.61
66196;BME280;53000;45.182;5.736;2023-05-29T09:34:42;98975.78;;;35.15;28.71
66196;BME280;53000;45.182;5.736;2023-05-29T09:37:09;98974.66;;;35.08;27.56
66196;BME280;53000;45.182;5.736;2023-05-29T09:42:07;98979.34;;;34.95;27.37
66196;BME280;53000;45.182;5.736;2023-05-29T09:44:32;98975.25;;;34.83;28.10
66196;BME280;53000;45.182;5.736;2023-05-29T09:46:59;98970.22;;;34.59;27.86
66196;BME280;53000;45.182;5.736;2023-05-29T09:49:25;98970.13;;;34.38;28.39
66196;BME280;53000;45.182;5.736;2023-05-29T09:51:54;98969.19;;;34.17;28.11
66196;BME280;53000;45.182;5.736;2023-05-29T09:54:20;98968.72;;;33.89;28.12
66196;BME280;53000;45.182;5.736;2023-05-29T09:56:46;98957.69;;;33.66;27.87
66196;BME280;53000;45.182;5.736;2023-05-29T09:59:14;98965.59;;;33.55;28.08
66196;BME280;53000;45.182;5.736;2023-05-29T10:01:44;98961.13;;;33.37;29.22
66196;BME280;53000;45.182;5.736;2023-05-29T10:04:10;98963.91;;;33.11;27.69
66196;BME280;53000;45.182;5.736;2023-05-29T10:06:38;98960.00;;;32.80;29.45
66196;BME280;53000;45.182;5.736;2023-05-29T10:09:09;98948.38;;;32.65;28.50
66196;BME280;53000;45.182;5.736;2023-05-29T10:11:37;98948.94;;;32.44;28.42
66196;BME280;53000;45.182;5.736;2023-05-29T10:14:05;98947.72;;;32.28;28.71
66196;BME280;53000;45.182;5.736;2023-05-29T10:16:32;98946.09;;;32.04;28.74
66196;BME280;53000;45.182;5.736;2023-05-29T10:19:04;98941.50;;;31.86;29.21
66196;BME280;53000;45.182;5.736;2023-05-29T10:21:36;98942.91;;;31.74;29.98
66196;BME280;53000;45.182;5.736;2023-05-29T10:24:05;98947.31;;;31.67;29.87
66196;BME280;53000;45.182;5.736;2023-05-29T10:26:34;98939.97;;;31.57;30.00
66196;BME280;53000;45.182;5.736;2023-05-29T10:34:39;98929.66;;;31.30;30.59
66196;BME280;53000;45.182;5.736;2023-05-29T10:37:21;98930.50;;;31.30;29.03
66196;BME280;53000;45.182;5.736;2023-05-29T10:39:51;98930.69;;;31.34;29.75
66196;BME280;53000;45.182;5.736;2023-05-29T10:45:03;98921.09;;;31.26;29.10
66196;BME280;53000;45.182;5.736;2023-05-29T10:47:29;98920.06;;;31.22;29.80
66196;BME280;53000;45.182;5.736;2023-05-29T10:49:59;98918.91;;;31.23;30.17
66196;BME280;53000;45.182;5.736;2023-05-29T10:52:25;98909.00;;;31.17;30.79
66196;BME280;53000;45.182;5.736;2023-05-29T10:54:52;98913.47;;;31.18;30.94
66196;BME280;53000;45.182;5.736;2023-05-29T10:57:21;98910.53;;;31.23;30.92
66196;BME280;53000;45.182;5.736;2023-05-29T10:59:46;98911.88;;;31.26;31.11
66196;BME280;53000;45.182;5.736;2023-05-29T11:02:17;98906.47;;;31.29;30.23
66196;BME280;53000;45.182;5.736;2023-05-29T11:04:43;98900.56;;;31.31;31.05
66196;BME280;53000;45.182;5.736;2023-05-29T11:07:32;98905.66;;;31.29;30.71
66196;BME280;53000;45.182;5.736;2023-05-29T11:10:10;98892.69;;;30.96;29.38
66196;BME280;53000;45.182;5.736;2023-05-29T11:12:55;98897.06;;;30.61;31.37
66196;BME280;53000;45.182;5.736;2023-05-29T11:15:21;98897.19;;;30.56;31.82
66196;BME280;53000;45.182;5.736;2023-05-29T11:17:46;98886.91;;;30.65;31.17
66196;BME280;53000;45.182;5.736;2023-05-29T11:23:05;98874.91;;;30.92;31.31
66196;BME280;53000;45.182;5.736;2023-05-29T11:25:35;98876.00;;;31.05;31.53
66196;BME280;53000;45.182;5.736;2023-05-29T11:28:03;98874.63;;;31.16;31.57
66196;BME280;53000;45.182;5.736;2023-05-29T11:30:40;98876.81;;;31.20;30.31
66196;BME280;53000;45.182;5.736;2023-05-29T11:33:07;98862.47;;;31.21;30.66
66196;BME280;53000;45.182;5.736;2023-05-29T11:35:34;98862.38;;;31.26;30.81
66196;BME280;53000;45.182;5.736;2023-05-29T11:38:03;98864.59;;;31.38;31.23
66196;BME280;53000;45.182;5.736;2023-05-29T11:40:29;98856.19;;;31.52;31.50
66196;BME280;53000;45.182;5.736;2023-05-29T11:42:54;98852.44;;;31.56;30.65
66196;BME280;53000;45.182;5.736;2023-05-29T11:45:21;98850.66;;;31.61;29.84
66196;BME280;53000;45.182;5.736;2023-05-29T11:47:57;98849.38;;;31.67;30.74
66196;BME280;53000;45.182;5.736;2023-05-29T11:50:25;98840.19;;;31.75;30.82
66196;BME280;53000;45.182;5.736;2023-05-29T11:52:51;98844.19;;;31.83;30.15
66196;BME280;53000;45.182;5.736;2023-05-29T11:55:20;98838.94;;;31.90;30.82
66196;BME280;53000;45.182;5.736;2023-05-29T11:58:06;98836.66;;;31.92;30.49
66196;BME280;53000;45.182;5.736;2023-05-29T12:00:33;98829.72;;;31.89;30.58
66196;BME280;53000;45.182;5.736;2023-05-29T12:02:59;98831.91;;;31.92;30.48
66196;BME280;53000;45.182;5.736;2023-05-29T12:05:44;98822.66;;;31.92;30.20
66196;BME280;53000;45.182;5.736;2023-05-29T12:08:10;98823.31;;;31.89;30.67
66196;BME280;53000;45.182;5.736;2023-05-29T12:10:35;98814.44;;;31.95;30.69
66196;BME280;53000;45.182;5.736;2023-05-29T12:13:00;98814.19;;;32.06;30.14
66196;BME280;53000;45.182;5.736;2023-05-29T12:15:26;98809.25;;;32.11;30.46
66196;BME280;53000;45.182;5.736;2023-05-29T12:17:53;98811.63;;;32.18;30.52
66196;BME280;53000;45.182;5.736;2023-05-29T12:20:22;98797.63;;;32.27;30.53
66196;BME280;53000;45.182;5.736;2023-05-29T12:22:48;98800.59;;;32.30;30.16
66196;BME280;53000;45.182;5.736;2023-05-29T12:25:16;98810.19;;;32.38;29.99
66196;BME280;53000;45.182;5.736;2023-05-29T12:27:44;98801.47;;;32.39;30.05
66196;BME280;53000;45.182;5.736;2023-05-29T12:32:44;98800.97;;;32.37;29.14
66196;BME280;53000;45.182;5.736;2023-05-29T12:37:42;98788.59;;;32.47;30.64
66196;BME280;53000;45.182;5.736;2023-05-29T12:43:06;98774.41;;;32.35;30.46
66196;BME280;53000;45.182;5.736;2023-05-29T12:45:33;98786.59;;;32.39;30.72
66196;BME280;53000;45.182;5.736;2023-05-29T12:48:06;98782.00;;;32.43;30.14
66196;BME280;53000;45.182;5.736;2023-05-29T12:50:37;98788.91;;;32.46;30.85
66196;BME280;53000;45.182;5.736;2023-05-29T12:53:11;98765.38;;;32.47;30.17
66196;BME280;53000;45.182;5.736;2023-05-29T12:55:39;98757.94;;;32.33;30.42
66196;BME280;53000;45.182;5.736;2023-05-29T12:58:06;98767.16;;;32.25;30.93
66196;BME280;53000;45.182;5.736;2023-05-29T13:00:33;98774.75;;;32.33;30.43
66196;BME280;53000;45.182;5.736;2023-05-29T13:02:59;98771.59;;;32.35;30.79
66196;BME280;53000;45.182;5.736;2023-05-29T13:05:24;98776.91;;;32.45;30.77
66196;BME280;53000;45.182;5.736;2023-05-29T13:07:50;98774.28;;;32.49;30.16
66196;BME280;53000;45.182;5.736;2023-05-29T13:10:16;98760.91;;;32.46;29.57
66196;BME280;53000;45.182;5.736;2023-05-29T13:12:42;98762.91;;;32.45;30.57
66196;BME280;53000;45.182;5.736;2023-05-29T13:15:11;98754.53;;;32.54;30.83
66196;BME280;53000;45.182;5.736;2023-05-29T13:17:38;98743.50;;;32.66;29.86
66196;BME280;53000;45.182;5.736;2023-05-29T13:20:10;98752.91;;;32.79;30.39
66196;BME280;53000;45.182;5.736;2023-05-29T13:22:37;98749.44;;;32.82;30.02
66196;BME280;53000;45.182;5.736;2023-05-29T13:25:03;98747.13;;;32.75;29.03
66196;BME280;53000;45.182;5.736;2023-05-29T13:27:32;98744.81;;;32.60;29.91
66196;BME280;53000;45.182;5.736;2023-05-29T13:29:58;98751.72;;;32.54;29.88
66196;BME280;53000;45.182;5.736;2023-05-29T13:32:23;98750.38;;;32.51;30.34
66196;BME280;53000;45.182;5.736;2023-05-29T13:34:49;98748.75;;;32.50;30.60
66196;BME280;53000;45.182;5.736;2023-05-29T13:37:14;98743.28;;;32.45;29.70